8AK4 weather

McCues Heliport
Ketchikan, Alaska, United States

Public forecast

Using degrees Fahrenheit for public forecast. Weather courtesy of forecast.io.

METAR (pilot weather report)

Closest report is Ketchikan International Airport, 0.7 nm (1.3 km) S. Retrieved 2019/07/23 05:51 UTC (14 minutes ago):

PAKT 230551Z 15004KT 10SM SCT012 BKN090 14/14 A3003

TAF (pilot weather forecast)

Closest forecast is Ketchikan International Airport, 0.7 nm (1.3 km) S. Retrieved 2019/07/23 06:22 UTC (0 seconds ago):

TAF PAKT 230520Z 2306/2406 14007KT P6SM -SHRA SCT040 BKN080 AMD LTD TO CLD VIS AND WIND 2306/2315